2000 STEVE (2000056S17153)


On this page: IBTrACS data - Map and Plots - Positions - Intensities - Original source data

Summary

Start Feb 25
End Mar 12
Basins SI
SP
LMI 78 kt
Sources jtwc_sh
bom
wellington
neumann
In WMO? Yes
Previous storm 2000 KIM (SP)
Previous in basin 2000 KIM (SP)
Concurrent storms 2000 ELINE (SI)
2000 FELICIA (SI)
2000 KIM (SP)
2000 STEVE (SP)
2000 GLORIA (SI)
2000 0919992000 (SI)
2000 NORMAN (SI)
2000 LEO (SP)
2000 HR19SMONA (SP)
Next in basin 2000 LEO (SP)
Next storm 2000 GLORIA (SI)

top of page IBTrACS Data: File Access

top of page HURSAT Data: File Access

Image of storm

top of page Plots:

Map of storm track will not appear if FTP is down
Time series of cyclone Maximum Sustained Wind will not appear if FTP is down
Time series of cyclone Minimum Central Pressure will not appear if FTP is down

top of page Track Data:Position

jtwc_sh bom wellington neumann
Date Lat Lon Lat Lon Lat Lon Lat Lon
2000-02-25 00:00:00 -17.2 153.0
2000-02-25 06:00:00 -16.5 150.7 -16.6 152.0 -16.5 150.7
2000-02-25 12:00:00 -16.5 150.4 -16.3 151.2 -16.5 150.4
2000-02-25 18:00:00 -16.5 150.1 -16.6 150.5 -16.5 150.1
2000-02-26 00:00:00 -16.5 149.8 -16.6 149.4 -16.5 149.8
2000-02-26 06:00:00 -16.5 149.2 -16.5 149.0 -16.5 149.2
2000-02-26 12:00:00 -16.5 148.6 -16.4 148.4 -16.5 148.6
2000-02-26 18:00:00 -16.5 147.9 -16.5 147.6 -16.5 147.9
2000-02-27 00:00:00 -16.5 147.1 -16.5 147.0 -16.5 147.0 -16.5 147.1
2000-02-27 06:00:00 -16.5 145.8 -16.6 146.3 -16.6 146.3 -16.5 145.8
2000-02-27 12:00:00 -16.7 144.7 -16.8 145.0 -16.8 145.0 -16.7 144.7
2000-02-27 18:00:00 -17.0 143.7 -17.3 143.5 -17.3 143.5 -17.0 143.7
2000-02-28 00:00:00 -17.3 142.7 -17.5 142.6 -17.5 142.6 -17.3 142.7
2000-02-28 06:00:00 -17.6 141.7 -17.5 141.5 -17.5 141.5 -17.6 141.7
2000-02-28 12:00:00 -17.3 140.7 -17.1 140.4 -17.1 140.4 -17.3 140.7
2000-02-28 18:00:00 -16.9 139.9 -16.7 139.6 -16.7 139.6 -16.9 139.9
2000-02-29 00:00:00 -16.5 139.2 -16.5 139.1 -16.5 139.1 -16.5 139.2
2000-02-29 06:00:00 -16.1 138.5 -16.2 138.5 -16.2 138.5 -16.1 138.5
2000-02-29 12:00:00 -15.8 137.8 -15.9 138.0 -15.9 137.9 -15.8 137.8
2000-02-29 18:00:00 -15.7 136.9 -15.7 137.3 -15.7 137.3 -15.7 136.9
2000-03-01 00:00:00 -15.8 136.1 -15.6 136.5 -15.6 136.5 -15.8 136.1
2000-03-01 06:00:00 -15.8 135.4 -15.3 135.4 -15.3 135.4 -15.8 135.4
2000-03-01 12:00:00 -15.3 134.5 -15.0 134.6 -15.0 134.6 -15.3 134.5
2000-03-01 18:00:00 -14.8 133.8 -14.9 133.8 -14.9 133.8 -14.8 133.8
2000-03-02 00:00:00 -14.7 133.0 -14.8 133.0 -14.8 133.8 -14.7 133.0
jtwc_sh bom wellington neumann
2000-03-02 06:00:00 -14.9 132.0 -14.7 132.2 -14.7 132.2 -14.9 132.0
2000-03-02 12:00:00 -14.8 131.2 -14.6 131.2 -14.6 131.2 -14.8 131.2
2000-03-02 18:00:00 -14.7 130.5 -14.7 130.5 -14.7 130.5 -14.7 130.5
2000-03-03 00:00:00 -15.0 129.5 -14.9 129.9 -14.9 129.9 -15.0 129.5
2000-03-03 06:00:00 -15.7 128.5 -15.2 129.2 -15.2 129.2 -15.7 128.5
2000-03-03 12:00:00 -16.1 127.3 -15.5 128.0 -15.5 128.0 -16.1 127.3
2000-03-03 18:00:00 -16.4 126.0 -15.8 126.5 -15.8 126.5 -16.4 126.0
2000-03-04 00:00:00 -16.7 124.9 -16.2 125.0 -16.2 125.0 -16.7 124.9
2000-03-04 06:00:00 -17.0 123.8 -17.4 123.4 -17.0 123.8
2000-03-04 12:00:00 -17.4 122.8 -17.6 122.7 -17.4 122.8
2000-03-04 18:00:00 -17.7 121.9 -17.9 121.9 -17.7 121.9
2000-03-05 00:00:00 -18.1 121.0 -18.3 121.1 -18.1 121.0
2000-03-05 06:00:00 -18.7 120.1 -18.7 120.4 -18.7 120.1
2000-03-05 12:00:00 -19.1 119.2 -19.1 119.8 -19.1 119.2
2000-03-05 18:00:00 -19.9 118.5 -19.5 118.9 -19.9 118.5
2000-03-06 00:00:00 -20.1 117.7 -19.9 118.0 -20.1 117.7
2000-03-06 06:00:00 -20.3 116.9 -20.3 116.8 -20.3 116.9
2000-03-06 12:00:00 -20.8 116.2 -20.7 116.3 -20.8 116.2
2000-03-06 18:00:00 -21.6 115.5 -21.3 115.7 -21.6 115.5
2000-03-07 00:00:00 -22.3 115.2 -22.2 115.2 -22.3 115.2
2000-03-07 06:00:00 -22.7 114.5 -22.7 114.5 -22.7 114.5
2000-03-07 12:00:00 -23.0 113.9 -23.1 114.1 -23.0 113.9
2000-03-07 18:00:00 -23.6 113.6 -23.4 113.8 -23.6 113.6
2000-03-08 00:00:00 -24.1 113.3 -23.8 113.5 -24.1 113.3
jtwc_sh bom wellington neumann
2000-03-08 06:00:00 -24.4 113.1 -24.7 113.3 -24.4 113.1
2000-03-08 12:00:00 -24.8 113.1 -25.0 113.2 -24.8 113.1
2000-03-08 18:00:00 -25.2 113.3 -25.2 113.3 -25.2 113.3
2000-03-09 00:00:00 -25.4 113.6 -25.4 113.5 -25.4 113.6
2000-03-09 06:00:00 -25.7 113.9 -25.6 113.6 -25.7 113.9
2000-03-09 12:00:00 -25.9 114.2 -25.9 114.4 -25.9 114.2
2000-03-09 18:00:00 -26.3 114.9 -26.3 115.0 -26.3 114.9
2000-03-10 00:00:00 -27.0 116.1 -27.2 115.7 -27.0 116.1
2000-03-10 06:00:00 -27.9 117.4 -28.1 117.1 -27.9 117.4
2000-03-10 12:00:00 -29.0 118.9 -29.0 118.7 -29.0 118.9
2000-03-10 18:00:00 -30.1 120.1 -30.3 120.2 -30.1 120.1
2000-03-11 00:00:00 -32.0 121.2 -31.6 121.9 -32.0 121.2
2000-03-11 06:00:00 -33.0 123.7
2000-03-11 12:00:00 -34.3 125.1
2000-03-11 18:00:00 -35.7 126.5
2000-03-12 00:00:00 -37.7 128.0

top of pageTrack Data:Intensity

jtwc_sh bom wellington neumann
Date Wind Pres Wind Pres Wind Pres Wind Pres
2000-02-25 00:00:00 25. 1003.
2000-02-25 06:00:00 25. 25. 1001. 25.
2000-02-25 12:00:00 25. 25. 1001. 25.
2000-02-25 18:00:00 25. 25. 1001. 25.
2000-02-26 00:00:00 25. 25. 1001. 25.
2000-02-26 06:00:00 25. 25. 1001. 25.
2000-02-26 12:00:00 30. 25. 1000. 30.
2000-02-26 18:00:00 35. 30. 996. 35.
2000-02-27 00:00:00 40. 64. 988. 40. 988. 40.
2000-02-27 06:00:00 40. 76. 980. 55. 980. 40.
2000-02-27 12:00:00 35. 54. 990. 40. 990. 35.
2000-02-27 18:00:00 30. 33. 999. 30. 999. 30.
2000-02-28 00:00:00 25. 33. 1002. 25. 1002. 25.
2000-02-28 06:00:00 25. 33. 1002. 25. 1002. 25.
2000-02-28 12:00:00 25. 54. 995. 35. 995. 25.
2000-02-28 18:00:00 25. 54. 992. 35. 992. 25.
2000-02-29 00:00:00 30. 60. 988. 40. 988. 30.
2000-02-29 06:00:00 35. 60. 988. 40. 988. 35.
2000-02-29 12:00:00 40. 74. 988. 40. 988. 40.
2000-02-29 18:00:00 45. 78. 985. 50. 985. 45.
2000-03-01 00:00:00 35. 68. 987. 45. 987. 35.
2000-03-01 06:00:00 30. 992. 35. 992. 30.
2000-03-01 12:00:00 25. 995. 30. 995. 25.
2000-03-01 18:00:00 25. 995. 30. 995. 25.
2000-03-02 00:00:00 25. 995. 30. 996. 25.
jtwc_sh bom wellington neumann
2000-03-02 06:00:00 25. 993. 30. 993. 25.
2000-03-02 12:00:00 25. 994. 30. 994. 25.
2000-03-02 18:00:00 25. 992. 30. 992. 25.
2000-03-03 00:00:00 25. 994. 30. 994. 25.
2000-03-03 06:00:00 25. 994. 30. 994. 25.
2000-03-03 12:00:00 25. 995. 30. 995. 25.
2000-03-03 18:00:00 30. 995. 30. 995. 30.
2000-03-04 00:00:00 30. 995. 30. 995. 30.
2000-03-04 06:00:00 30. 35. 995. 30.
2000-03-04 12:00:00 30. 35. 995. 30.
2000-03-04 18:00:00 30. 41. 990. 30.
2000-03-05 00:00:00 35. 41. 990. 35.
2000-03-05 06:00:00 40. 49. 985. 40.
2000-03-05 12:00:00 45. 49. 985. 45.
2000-03-05 18:00:00 55. 54. 980. 55.
2000-03-06 00:00:00 55. 60. 975. 55.
2000-03-06 06:00:00 65. 60. 975. 65.
2000-03-06 12:00:00 65. 60. 975. 65.
2000-03-06 18:00:00 55. 54. 980. 55.
2000-03-07 00:00:00 55. 54. 980. 55.
2000-03-07 06:00:00 55. 54. 980. 55.
2000-03-07 12:00:00 55. 54. 980. 55.
2000-03-07 18:00:00 55. 54. 980. 55.
2000-03-08 00:00:00 55. 54. 980. 55.
jtwc_sh bom wellington neumann
2000-03-08 06:00:00 50. 54. 980. 50.
2000-03-08 12:00:00 50. 54. 980. 50.
2000-03-08 18:00:00 50. 54. 980. 50.
2000-03-09 00:00:00 45. 54. 980. 45.
2000-03-09 06:00:00 45. 54. 980. 45.
2000-03-09 12:00:00 50. 54. 980. 50.
2000-03-09 18:00:00 40. 54. 980. 40.
2000-03-10 00:00:00 35. 49. 985. 35.
2000-03-10 06:00:00 35. 49. 985. 35.
2000-03-10 12:00:00 30. 41. 990. 30.
2000-03-10 18:00:00 25. 41. 990. 25.
2000-03-11 00:00:00 20. 41. 990. 20.
2000-03-11 06:00:00 41. 990.
2000-03-11 12:00:00 41. 990.
2000-03-11 18:00:00 41. 990.
2000-03-12 00:00:00 35. 995.

top of page Links to source data

Source Source file Format
jtwc_sh bsh142000.txt ATCF
bom Newcyclonedatabase-08repair.csv:Line=19461:STEVE CSV file (from Excel file)
wellington TC_BT_1967_2006.csv:Line=6644:STEVE Text table
neumann tracks.sh:Storm=1189:STEVE:14S:BSH142000 HURDAT